Time;durP1;ratioP1;P1;durP2;ratioP2;P2;SDS_P1;SDS_P2;PMS_P1;PMS_P2;Temp;Humidity;BMP_temperature;BMP_pressure;BME280_temperature;BME280_humidity;BME280_pressure;Samples;Min_cycle;Max_cycle;Signal;HPM_P1;HPM_P2
2024/01/20 00:00:40;;;;;;;;;;;;;;;8.97;44.83;101437.47;4928858;28;98182;-73
2024/01/20 00:03:06;;;;;;;;;;;;;;;8.97;45.27;101434.78;4927727;28;129610;-72
2024/01/20 00:05:32;;;;;;;;;;;;;;;8.97;44.58;101433.97;4926362;28;98515;-65
2024/01/20 00:07:58;;;;;;;;;;;;;;;8.97;44.93;101429.41;4925518;28;115660;-73
2024/01/20 00:10:24;;;;;;;;;;;;;;;8.96;45.26;101429.63;4924710;28;106250;-65
2024/01/20 00:12:49;;;;;;;;;;;;;;;8.96;45.42;101435.84;4926986;28;111100;-65
2024/01/20 00:15:16;;;;;;;;;;;;;;;8.96;44.60;101437.69;4942134;28;103378;-73
2024/01/20 00:17:41;;;;;;;;;;;;;;;8.95;44.67;101439.56;4924916;28;98546;-73
2024/01/20 00:20:08;;;;;;;;;;;;;;;8.97;44.68;101436.66;4924909;28;109722;-73
2024/01/20 00:22:34;;;;;;;;;;;;;;;8.95;45.11;101430.69;4933951;28;101497;-73
2024/01/20 00:25:02;;;;;;;;;;;;;;;8.95;45.43;101438.75;4932614;28;98209;-73
2024/01/20 00:27:29;;;;;;;;;;;;;;;8.95;44.96;101446.81;4945519;28;98338;-73
2024/01/20 00:29:55;;;;;;;;;;;;;;;8.94;44.62;101440.63;4925846;28;98789;-66
2024/01/20 00:32:21;;;;;;;;;;;;;;;8.95;45.19;101452.19;4923852;28;118436;-66
2024/01/20 00:34:47;;;;;;;;;;;;;;;8.92;45.04;101448.13;4922693;28;110969;-66
2024/01/20 00:37:13;;;;;;;;;;;;;;;8.93;44.96;101452.44;4938117;28;99384;-66
2024/01/20 00:39:39;;;;;;;;;;;;;;;8.95;45.08;101457.56;4925457;28;99595;-74
2024/01/20 00:42:05;;;;;;;;;;;;;;;8.94;45.25;101462.13;4943249;28;131485;-66
2024/01/20 00:44:31;;;;;;;;;;;;;;;8.94;44.82;101462.13;4939073;28;119039;-66
2024/01/20 00:46:57;;;;;;;;;;;;;;;8.94;44.88;101459.44;4924718;28;119641;-66
2024/01/20 00:49:23;;;;;;;;;;;;;;;8.95;44.95;101471.00;4925455;28;100009;-74
2024/01/20 00:51:48;;;;;;;;;;;;;;;8.93;44.75;101465.88;4924102;28;129033;-74
2024/01/20 00:54:14;;;;;;;;;;;;;;;8.94;45.31;101464.81;4949290;28;122776;-66
2024/01/20 00:56:40;;;;;;;;;;;;;;;8.94;44.90;101466.69;4926309;28;98120;-74
2024/01/20 00:59:09;;;;;;;;;;;;;;;8.94;45.26;101469.38;4942220;28;115357;-67
2024/01/20 01:01:35;;;;;;;;;;;;;;;8.93;44.86;101476.63;4941944;28;100050;-66
2024/01/20 01:04:01;;;;;;;;;;;;;;;8.93;45.37;101482.00;4940128;28;109140;-67
2024/01/20 01:06:27;;;;;;;;;;;;;;;8.94;45.61;101480.16;4942623;28;98296;-66
2024/01/20 01:08:53;;;;;;;;;;;;;;;8.94;44.66;101485.53;4958943;28;99209;-74
2024/01/20 01:11:19;;;;;;;;;;;;;;;8.94;45.11;101488.22;4937601;28;129637;-67
2024/01/20 01:13:45;;;;;;;;;;;;;;;8.94;44.63;101493.59;4943861;28;122306;-74
2024/01/20 01:16:11;;;;;;;;;;;;;;;8.94;45.28;101493.59;4923377;28;98224;-66
2024/01/20 01:18:37;;;;;;;;;;;;;;;8.92;45.32;101493.84;4925534;28;99000;-74
2024/01/20 01:21:03;;;;;;;;;;;;;;;8.93;45.31;101494.66;4937385;28;98067;-71
2024/01/20 01:23:29;;;;;;;;;;;;;;;8.93;45.32;101492.78;4938788;28;98025;-74
2024/01/20 01:25:55;;;;;;;;;;;;;;;8.92;45.29;101488.44;4923742;28;98033;-74
2024/01/20 01:28:21;;;;;;;;;;;;;;;8.93;44.94;101482.00;4928353;28;97958;-66
2024/01/20 01:30:47;;;;;;;;;;;;;;;8.93;44.86;101482.00;4941640;28;98313;-66
2024/01/20 01:33:13;;;;;;;;;;;;;;;8.92;45.45;101479.53;4929996;28;98026;-66
2024/01/20 01:35:39;;;;;;;;;;;;;;;8.91;45.46;101486.78;4944601;28;97975;-74
2024/01/20 01:38:05;;;;;;;;;;;;;;;8.92;44.89;101484.91;4936565;28;130124;-66
2024/01/20 01:40:31;;;;;;;;;;;;;;;8.92;45.25;101485.75;4960375;28;98443;-66
2024/01/20 01:42:57;;;;;;;;;;;;;;;8.90;44.85;101493.22;4942330;28;98911;-74
2024/01/20 01:45:24;;;;;;;;;;;;;;;8.92;45.05;101498.38;4922969;28;99831;-66
2024/01/20 01:47:54;;;;;;;;;;;;;;;8.91;44.95;101496.72;4927853;28;98456;-66
2024/01/20 01:50:21;;;;;;;;;;;;;;;8.91;44.92;101508.31;4927116;28;97981;-74
2024/01/20 01:52:48;;;;;;;;;;;;;;;8.91;44.98;101504.81;4943197;28;98029;-74
2024/01/20 01:55:15;;;;;;;;;;;;;;;8.92;45.33;101501.06;4938339;28;98548;-74
2024/01/20 01:57:42;;;;;;;;;;;;;;;8.90;45.22;101495.91;4917987;28;114390;-74
2024/01/20 02:00:08;;;;;;;;;;;;;;;8.90;45.30;101509.38;4917906;28;98087;-66
2024/01/20 02:02:35;;;;;;;;;;;;;;;8.90;45.15;101503.97;4925287;28;98381;-74
2024/01/20 02:05:01;;;;;;;;;;;;;;;8.90;44.91;101513.91;4927946;28;97922;-74
2024/01/20 02:07:29;;;;;;;;;;;;;;;8.89;44.91;101509.59;4926419;28;98239;-66
2024/01/20 02:09:55;;;;;;;;;;;;;;;8.88;45.35;101516.00;4925521;28;98957;-74
2024/01/20 02:12:21;;;;;;;;;;;;;;;8.89;45.53;101514.97;4939793;28;98323;-66
2024/01/20 02:14:47;;;;;;;;;;;;;;;8.89;44.65;101510.41;4927030;28;98137;-74
2024/01/20 02:17:13;;;;;;;;;;;;;;;8.90;44.72;101511.22;4924852;28;98180;-66
2024/01/20 02:19:40;;;;;;;;;;;;;;;8.89;45.11;101515.78;4922318;28;98128;-66
2024/01/20 02:22:10;;;;;;;;;;;;;;;8.89;44.88;101509.59;4936594;28;98376;-66
2024/01/20 02:24:37;;;;;;;;;;;;;;;8.88;44.82;101516.81;4955565;28;98151;-66
2024/01/20 02:27:03;;;;;;;;;;;;;;;8.89;45.39;101513.09;4941723;28;102045;-74
2024/01/20 02:29:29;;;;;;;;;;;;;;;8.89;44.60;101506.91;4954058;27;99691;-74
2024/01/20 02:31:55;;;;;;;;;;;;;;;8.89;44.98;101510.41;4926713;28;105786;-74
2024/01/20 02:34:21;;;;;;;;;;;;;;;8.87;45.17;101504.44;4940249;28;98455;-74
2024/01/20 02:36:47;;;;;;;;;;;;;;;8.87;45.03;101517.88;4938321;28;98425;-74
2024/01/20 02:39:13;;;;;;;;;;;;;;;8.88;45.29;101510.63;4930173;28;98142;-74
2024/01/20 02:41:39;;;;;;;;;;;;;;;8.87;45.50;101507.13;4927836;28;98055;-66
2024/01/20 02:44:08;;;;;;;;;;;;;;;8.87;44.74;101504.44;4923259;28;114679;-72
2024/01/20 02:46:34;;;;;;;;;;;;;;;8.87;45.01;101515.19;4939241;28;98823;-74
2024/01/20 02:49:00;;;;;;;;;;;;;;;8.87;45.45;101519.75;4938072;28;97891;-74
2024/01/20 02:51:26;;;;;;;;;;;;;;;8.87;45.22;101517.88;4928786;28;98666;-65
2024/01/20 02:53:52;;;;;;;;;;;;;;;8.87;45.23;101528.63;4936255;28;99660;-74
2024/01/20 02:56:18;;;;;;;;;;;;;;;8.87;44.63;101531.31;4926205;28;98593;-67
2024/01/20 02:58:44;;;;;;;;;;;;;;;8.87;45.42;101536.72;4942329;28;98642;-74
2024/01/20 03:01:10;;;;;;;;;;;;;;;8.87;45.18;101539.41;4937310;28;103315;-66
2024/01/20 03:03:36;;;;;;;;;;;;;;;8.88;44.93;101532.13;4926451;28;102292;-66
2024/01/20 03:06:02;;;;;;;;;;;;;;;8.87;45.14;101542.09;4938941;28;99764;-74
2024/01/20 03:08:29;;;;;;;;;;;;;;;8.87;44.68;101531.31;4923701;28;99418;-66
2024/01/20 03:10:55;;;;;;;;;;;;;;;8.87;44.72;101536.72;4922805;28;98714;-66
2024/01/20 03:13:21;;;;;;;;;;;;;;;8.88;44.84;101538.34;4927329;28;98225;-66
2024/01/20 03:15:47;;;;;;;;;;;;;;;8.88;44.91;101535.66;4936030;28;98488;-65
2024/01/20 03:18:13;;;;;;;;;;;;;;;8.88;45.15;101542.91;4928199;28;104508;-66
2024/01/20 03:20:39;;;;;;;;;;;;;;;8.88;45.19;101545.59;4927033;28;125751;-66
2024/01/20 03:23:06;;;;;;;;;;;;;;;8.88;45.60;101550.97;4930746;28;112074;-74
2024/01/20 03:25:32;;;;;;;;;;;;;;;8.88;45.01;101546.41;4928627;28;99964;-65
2024/01/20 03:27:58;;;;;;;;;;;;;;;8.87;44.90;101544.78;4943596;28;98248;-66
2024/01/20 03:30:27;;;;;;;;;;;;;;;8.87;45.15;101544.78;4928986;28;118480;-66
2024/01/20 03:32:53;;;;;;;;;;;;;;;8.87;45.03;101543.97;4953113;28;119933;-74
2024/01/20 03:35:19;;;;;;;;;;;;;;;8.87;45.59;101550.16;4940442;28;98299;-66
2024/01/20 03:37:45;;;;;;;;;;;;;;;8.87;44.90;101549.34;4926787;28;97894;-66
2024/01/20 03:40:11;;;;;;;;;;;;;;;8.86;44.76;101540.44;4904402;27;123429;-66
2024/01/20 03:42:37;;;;;;;;;;;;;;;8.88;44.50;101548.28;4922005;28;121423;-66
2024/01/20 03:45:03;;;;;;;;;;;;;;;8.87;44.94;101546.66;4921569;28;99565;-66
2024/01/20 03:47:29;;;;;;;;;;;;;;;8.88;45.24;101556.34;4921420;28;98101;-65
2024/01/20 03:49:55;;;;;;;;;;;;;;;8.87;44.98;101558.22;4925413;28;98643;-74
2024/01/20 03:52:21;;;;;;;;;;;;;;;8.87;45.08;101554.72;4922726;28;98254;-66
2024/01/20 03:54:47;;;;;;;;;;;;;;;8.84;45.54;101551.44;4923618;28;98078;-66
2024/01/20 03:57:13;;;;;;;;;;;;;;;8.87;44.50;101550.16;4921534;28;99246;-74
2024/01/20 03:59:39;;;;;;;;;;;;;;;8.87;45.19;101550.16;4956551;28;123222;-74
2024/01/20 04:02:05;;;;;;;;;;;;;;;8.87;45.18;101558.22;4926683;28;130662;-66
2024/01/20 04:04:31;;;;;;;;;;;;;;;8.87;45.05;101554.72;4945487;28;130718;-74
2024/01/20 04:06:57;;;;;;;;;;;;;;;8.87;44.63;101566.28;4926007;28;98317;-74
2024/01/20 04:09:23;;;;;;;;;;;;;;;8.86;44.71;101556.59;4943748;28;99026;-67
2024/01/20 04:11:50;;;;;;;;;;;;;;;8.85;45.58;101553.09;4942489;28;98215;-74
2024/01/20 04:14:16;;;;;;;;;;;;;;;8.86;45.18;101567.34;4922092;28;99403;-66
2024/01/20 04:16:42;;;;;;;;;;;;;;;8.85;45.12;101561.16;4930736;28;120814;-66
2024/01/20 04:19:08;;;;;;;;;;;;;;;8.86;45.13;101553.91;4938899;28;97944;-66
2024/01/20 04:21:34;;;;;;;;;;;;;;;8.86;45.12;101564.66;4926842;28;110220;-74
2024/01/20 04:24:00;;;;;;;;;;;;;;;8.86;45.42;101572.72;4943758;28;98277;-66
2024/01/20 04:26:26;;;;;;;;;;;;;;;8.86;44.80;101586.16;4924748;28;103595;-74
2024/01/20 04:28:52;;;;;;;;;;;;;;;8.86;45.12;101578.09;4928095;28;102783;-66
2024/01/20 04:31:18;;;;;;;;;;;;;;;8.85;44.50;101579.16;4923424;28;106972;-66
2024/01/20 04:33:44;;;;;;;;;;;;;;;8.85;45.21;101581.84;4928820;28;99537;-74
2024/01/20 04:36:10;;;;;;;;;;;;;;;8.85;44.56;101584.53;4930169;28;98272;-74
2024/01/20 04:38:36;;;;;;;;;;;;;;;8.87;45.00;101586.97;4923767;28;98093;-66
2024/01/20 04:41:02;;;;;;;;;;;;;;;8.84;44.47;101594.47;4948007;28;98487;-66
2024/01/20 04:43:29;;;;;;;;;;;;;;;8.84;45.33;101593.63;4940831;28;98243;-66
2024/01/20 04:45:55;;;;;;;;;;;;;;;8.85;45.22;101603.34;4930246;28;99762;-66
2024/01/20 04:48:21;;;;;;;;;;;;;;;8.84;45.23;101599.00;4959774;28;98286;-74
2024/01/20 04:50:47;;;;;;;;;;;;;;;8.84;44.88;101589.09;4924686;28;99248;-74
2024/01/20 04:53:13;;;;;;;;;;;;;;;8.84;45.12;101590.94;4930763;28;106503;-74
2024/01/20 04:55:39;;;;;;;;;;;;;;;8.83;44.73;101590.13;4924716;28;127781;-66
2024/01/20 04:58:05;;;;;;;;;;;;;;;8.84;44.98;101596.31;4930222;28;99653;-74
2024/01/20 05:00:31;;;;;;;;;;;;;;;8.84;44.93;101610.59;4941842;28;98474;-74
2024/01/20 05:02:57;;;;;;;;;;;;;;;8.84;45.13;101617.81;4956658;28;125079;-66
2024/01/20 05:05:23;;;;;;;;;;;;;;;8.83;44.86;101624.25;4938225;28;98412;-66
2024/01/20 05:07:49;;;;;;;;;;;;;;;8.84;44.82;101620.50;4930484;28;100730;-74
2024/01/20 05:10:15;;;;;;;;;;;;;;;8.83;44.79;101608.13;4938430;28;99160;-74
2024/01/20 05:12:41;;;;;;;;;;;;;;;8.83;44.77;101611.63;4939250;28;98114;-74
2024/01/20 05:15:11;;;;;;;;;;;;;;;8.83;45.03;101608.94;4939216;28;122396;-66
2024/01/20 05:17:37;;;;;;;;;;;;;;;8.82;44.88;101618.06;4945177;28;98154;-75
2024/01/20 05:20:05;;;;;;;;;;;;;;;8.82;44.82;101619.94;4956914;28;98755;-65
2024/01/20 05:22:31;;;;;;;;;;;;;;;8.82;45.19;101625.31;4940684;28;99746;-66
2024/01/20 05:24:58;;;;;;;;;;;;;;;8.80;45.04;101625.56;4926979;28;98639;-66
2024/01/20 05:27:23;;;;;;;;;;;;;;;8.80;44.94;101628.25;4937976;28;99246;-74
2024/01/20 05:29:49;;;;;;;;;;;;;;;8.80;45.16;101628.25;4954975;28;98237;-74
2024/01/20 05:32:16;;;;;;;;;;;;;;;8.80;44.90;101628.25;4922391;28;103009;-74
2024/01/20 05:34:41;;;;;;;;;;;;;;;8.81;45.09;101626.38;4937707;28;98277;-74
2024/01/20 05:37:07;;;;;;;;;;;;;;;8.81;45.14;101623.69;4940257;28;98208;-66
2024/01/20 05:39:34;;;;;;;;;;;;;;;8.80;45.30;101630.94;4920713;28;98720;-73
2024/01/20 05:42:00;;;;;;;;;;;;;;;8.80;44.76;101630.94;4936467;28;98947;-66
2024/01/20 05:44:27;;;;;;;;;;;;;;;8.80;44.73;101636.31;4920666;28;109834;-66
2024/01/20 05:46:53;;;;;;;;;;;;;;;8.79;44.53;101625.75;4923538;28;98244;-74
2024/01/20 05:49:20;;;;;;;;;;;;;;;8.78;45.05;101630.31;4918539;28;98964;-66
2024/01/20 05:51:46;;;;;;;;;;;;;;;8.79;45.09;101636.50;4919538;28;98311;-73
2024/01/20 05:54:12;;;;;;;;;;;;;;;8.78;44.64;101643.75;4938943;28;126446;-66
2024/01/20 05:56:37;;;;;;;;;;;;;;;8.78;44.81;101637.56;4937535;28;98048;-73
2024/01/20 05:59:03;;;;;;;;;;;;;;;8.78;45.12;101643.75;4917632;28;116488;-66
2024/01/20 06:01:29;;;;;;;;;;;;;;;8.78;45.39;101659.91;4922131;28;131658;-74
2024/01/20 06:03:55;;;;;;;;;;;;;;;8.77;44.52;101650.19;4924303;28;98939;-66
2024/01/20 06:06:22;;;;;;;;;;;;;;;8.77;44.81;101663.63;4920002;28;122703;-66
2024/01/20 06:08:47;;;;;;;;;;;;;;;8.78;45.17;101672.53;4915040;28;98402;-74
2024/01/20 06:11:14;;;;;;;;;;;;;;;8.77;44.41;101673.56;4917719;28;98338;-74
2024/01/20 06:13:40;;;;;;;;;;;;;;;8.77;45.16;101668.19;4925000;28;98235;-66
2024/01/20 06:16:06;;;;;;;;;;;;;;;8.76;44.87;101669.22;4922719;28;98018;-74
2024/01/20 06:18:32;;;;;;;;;;;;;;;8.77;45.10;101662.81;4938762;28;99362;-74
2024/01/20 06:20:59;;;;;;;;;;;;;;;8.77;44.97;101662.81;4926329;28;99139;-66
2024/01/20 06:23:28;;;;;;;;;;;;;;;8.77;44.83;101668.19;4919317;28;98545;-74
2024/01/20 06:25:55;;;;;;;;;;;;;;;8.77;45.30;101665.50;4937932;28;98153;-74
2024/01/20 06:28:21;;;;;;;;;;;;;;;8.76;44.87;101661.16;4921719;28;98502;-74
2024/01/20 06:30:49;;;;;;;;;;;;;;;8.76;44.82;101666.53;4934158;28;99011;-74
2024/01/20 06:33:16;;;;;;;;;;;;;;;8.75;44.79;101663.03;4938827;28;100750;-66
2024/01/20 06:35:42;;;;;;;;;;;;;;;8.76;45.40;101671.91;4920206;28;98194;-74
2024/01/20 06:38:08;;;;;;;;;;;;;;;8.76;44.99;101677.28;4918034;28;98119;-66
2024/01/20 06:40:34;;;;;;;;;;;;;;;8.76;45.31;101686.19;4933051;28;119035;-66
2024/01/20 06:43:00;;;;;;;;;;;;;;;8.75;44.60;101692.59;4918934;28;98342;-74
2024/01/20 06:45:33;;;;;;;;;;;;;;;8.76;44.90;101693.41;4937539;28;98275;-73
2024/01/20 06:47:59;;;;;;;;;;;;;;;8.78;44.96;101688.66;4928719;28;99521;-74
2024/01/20 06:50:26;;;;;;;;;;;;;;;8.78;45.09;101697.53;4931716;28;100813;-73
2024/01/20 06:52:52;;;;;;;;;;;;;;;8.77;44.53;101690.53;4920489;28;98411;-74
2024/01/20 06:55:18;;;;;;;;;;;;;;;8.81;45.15;101698.97;4932636;28;104873;-66
2024/01/20 06:57:44;;;;;;;;;;;;;;;8.82;45.28;101700.59;4925812;28;98279;-66
2024/01/20 07:00:11;;;;;;;;;;;;;;;8.83;44.95;101703.06;4945183;28;127189;-66
2024/01/20 07:02:37;;;;;;;;;;;;;;;8.85;44.51;101709.03;4953793;28;98193;-66
2024/01/20 07:05:03;;;;;;;;;;;;;;;8.87;44.61;101711.50;4925157;28;98155;-74
2024/01/20 07:07:29;;;;;;;;;;;;;;;8.88;44.95;101709.63;4929345;28;98239;-74
2024/01/20 07:09:57;;;;;;;;;;;;;;;8.90;44.79;101718.28;4927033;28;98015;-66
2024/01/20 07:12:24;;;;;;;;;;;;;;;8.91;44.76;101711.88;4937902;28;98255;-66
2024/01/20 07:14:50;;;;;;;;;;;;;;;8.93;44.70;101720.53;4956680;28;98320;-74
2024/01/20 07:17:16;;;;;;;;;;;;;;;8.94;44.26;101725.69;4939613;28;101727;-74
2024/01/20 07:19:42;;;;;;;;;;;;;;;8.95;44.82;101731.88;4927588;28;131024;-66
2024/01/20 07:22:08;;;;;;;;;;;;;;;8.97;44.47;101736.00;4924319;28;98121;-66
2024/01/20 07:24:34;;;;;;;;;;;;;;;8.98;45.27;101737.63;4941834;28;98413;-65
2024/01/20 07:27:00;;;;;;;;;;;;;;;9.01;44.81;101736.38;4938335;28;99195;-66
2024/01/20 07:29:27;;;;;;;;;;;;;;;9.02;44.27;101738.81;4943428;28;98427;-66
2024/01/20 07:31:53;;;;;;;;;;;;;;;9.05;44.96;101738.38;4947830;28;98009;-66
2024/01/20 07:34:21;;;;;;;;;;;;;;;9.07;44.94;101741.63;4931227;28;98187;-74
2024/01/20 07:36:47;;;;;;;;;;;;;;;9.10;45.02;101733.13;4943448;28;115114;-74
2024/01/20 07:39:14;;;;;;;;;;;;;;;9.15;44.83;101739.69;4929127;28;98405;-74
2024/01/20 07:41:39;;;;;;;;;;;;;;;9.17;45.11;101740.31;4931013;28;99145;-74
2024/01/20 07:44:05;;;;;;;;;;;;;;;9.20;44.61;101742.53;4942711;28;121830;-74
2024/01/20 07:46:31;;;;;;;;;;;;;;;9.26;44.80;101755.06;4937617;28;101955;-66
2024/01/20 07:48:57;;;;;;;;;;;;;;;9.34;44.81;101757.44;4923720;28;115911;-66
2024/01/20 07:51:23;;;;;;;;;;;;;;;9.44;44.33;101756.91;4930154;28;127211;-74
2024/01/20 07:53:49;;;;;;;;;;;;;;;9.43;44.54;101763.31;4930171;28;98539;-74
2024/01/20 07:56:16;;;;;;;;;;;;;;;9.44;44.50;101765.81;4922162;28;98270;-74
2024/01/20 07:58:42;;;;;;;;;;;;;;;9.52;44.42;101770.88;4944639;28;101361;-74
2024/01/20 08:01:08;;;;;;;;;;;;;;;9.65;44.12;101766.34;4944500;28;98028;-68
2024/01/20 08:03:34;;;;;;;;;;;;;;;9.83;44.62;101766.28;4943758;28;98306;-74
2024/01/20 08:06:00;;;;;;;;;;;;;;;10.06;44.24;101771.72;4937963;28;105654;-74
2024/01/20 08:08:26;;;;;;;;;;;;;;;10.31;43.87;101770.69;4925117;28;98287;-74
2024/01/20 08:10:52;;;;;;;;;;;;;;;10.60;44.08;101768.09;4943832;28;127347;-74
2024/01/20 08:13:19;;;;;;;;;;;;;;;11.05;43.60;101770.97;4939072;28;98201;-66
2024/01/20 08:15:45;;;;;;;;;;;;;;;11.61;43.11;101768.53;4929226;28;98347;-66
2024/01/20 08:18:11;;;;;;;;;;;;;;;12.10;42.92;101766.13;4920399;28;117898;-74
2024/01/20 08:20:37;;;;;;;;;;;;;;;12.51;42.81;101767.59;4925000;28;98139;-66
2024/01/20 08:23:03;;;;;;;;;;;;;;;12.90;42.69;101760.25;4925947;28;98038;-66
2024/01/20 08:25:29;;;;;;;;;;;;;;;13.29;42.29;101756.69;4942703;28;98291;-74
2024/01/20 08:27:55;;;;;;;;;;;;;;;13.68;42.25;101755.47;4930890;28;99738;-66
2024/01/20 08:30:22;;;;;;;;;;;;;;;14.13;42.47;101750.66;4934576;28;98307;-66
2024/01/20 08:32:48;;;;;;;;;;;;;;;14.47;42.43;101749.28;4926923;28;98111;-74
2024/01/20 08:35:14;;;;;;;;;;;;;;;14.98;42.38;101751.47;4927326;28;99297;-75
2024/01/20 08:37:40;;;;;;;;;;;;;;;15.54;42.34;101753.50;4941613;28;126744;-75
2024/01/20 08:40:06;;;;;;;;;;;;;;;16.04;42.26;101749.22;4934691;28;98162;-75
2024/01/20 08:42:32;;;;;;;;;;;;;;;16.42;42.23;101755.94;4925328;28;101148;-66
2024/01/20 08:44:58;;;;;;;;;;;;;;;16.76;42.26;101748.00;4925012;28;114505;-66
2024/01/20 08:47:24;;;;;;;;;;;;;;;17.08;42.11;101761.19;4927989;28;98146;-75
2024/01/20 08:49:53;;;;;;;;;;;;;;;17.52;42.12;101754.94;4924568;28;99375;-66
2024/01/20 08:52:19;;;;;;;;;;;;;;;17.93;42.12;101764.78;4924656;28;97881;-75
2024/01/20 08:54:46;;;;;;;;;;;;;;;18.61;41.79;101767.41;4942107;28;98234;-74
2024/01/20 08:57:13;;;;;;;;;;;;;;;17.87;42.60;101774.91;4937693;28;99760;-67
2024/01/20 08:59:38;;;;;;;;;;;;;;;17.34;42.98;101775.53;4936007;28;98352;-74
2024/01/20 09:02:05;;;;;;;;;;;;;;;17.20;43.01;101768.25;4927395;28;98193;-74
2024/01/20 09:04:32;;;;;;;;;;;;;;;16.85;43.35;101784.44;4959205;28;98239;-74
2024/01/20 09:06:58;;;;;;;;;;;;;;;16.45;43.43;101780.72;4927188;28;102891;-74
2024/01/20 09:09:24;;;;;;;;;;;;;;;16.56;43.23;101788.88;4938580;28;98882;-66
2024/01/20 09:11:49;;;;;;;;;;;;;;;17.16;42.81;101781.59;4940926;28;98077;-66
2024/01/20 09:14:16;;;;;;;;;;;;;;;16.57;43.29;101785.84;4940671;28;121902;-74
2024/01/20 09:16:41;;;;;;;;;;;;;;;16.40;43.51;101788.88;4935239;28;111556;-66
2024/01/20 09:19:08;;;;;;;;;;;;;;;16.75;42.89;101787.22;4957869;28;98639;-66
2024/01/20 09:21:34;;;;;;;;;;;;;;;16.41;43.30;101795.16;4927363;28;98045;-74
2024/01/20 09:24:00;;;;;;;;;;;;;;;16.22;43.45;101794.06;4925274;28;98877;-66
2024/01/20 09:26:26;;;;;;;;;;;;;;;16.05;43.51;101806.06;4925756;28;98221;-66
2024/01/20 09:28:52;;;;;;;;;;;;;;;16.00;43.29;101802.53;4944259;28;100741;-74
2024/01/20 09:31:18;;;;;;;;;;;;;;;15.91;43.54;101802.22;4920772;28;106510;-67
2024/01/20 09:33:45;;;;;;;;;;;;;;;15.73;43.89;101808.22;4924878;28;100221;-74
2024/01/20 09:36:11;;;;;;;;;;;;;;;15.54;43.88;101816.00;4942849;28;98497;-66
2024/01/20 09:38:37;;;;;;;;;;;;;;;15.51;43.66;101814.63;4939417;28;99704;-74
2024/01/20 09:41:09;;;;;;;;;;;;;;;15.50;43.50;101812.19;4929953;28;98331;-66
2024/01/20 09:43:37;;;;;;;;;;;;;;;15.56;43.50;101817.38;4927093;28;98704;-66
2024/01/20 09:46:03;;;;;;;;;;;;;;;15.69;43.55;101818.78;4945006;28;99394;-66
2024/01/20 09:48:29;;;;;;;;;;;;;;;15.56;43.67;101816.53;4926773;28;98399;-73
2024/01/20 09:50:56;;;;;;;;;;;;;;;16.04;42.95;101812.59;4922805;28;98187;-74
2024/01/20 09:53:22;;;;;;;;;;;;;;;16.14;43.00;101809.84;4924515;28;98276;-66
2024/01/20 09:55:48;;;;;;;;;;;;;;;17.24;41.85;101799.28;4926490;28;98400;-66
2024/01/20 09:58:16;;;;;;;;;;;;;;;16.57;42.65;101804.09;4930020;28;98292;-74
2024/01/20 10:00:42;;;;;;;;;;;;;;;16.25;43.08;101805.22;4927086;28;98593;-75
2024/01/20 10:03:09;;;;;;;;;;;;;;;16.08;43.27;101802.78;4931019;28;98303;-66
2024/01/20 10:05:35;;;;;;;;;;;;;;;15.95;43.37;101804.16;4923938;28;98084;-66
2024/01/20 10:08:02;;;;;;;;;;;;;;;15.80;43.52;101801.41;4926942;28;99470;-74
2024/01/20 10:10:30;;;;;;;;;;;;;;;15.66;43.73;101800.31;4925995;28;99451;-74
2024/01/20 10:12:57;;;;;;;;;;;;;;;15.53;43.67;101798.06;4930748;28;98237;-66
2024/01/20 10:15:28;;;;;;;;;;;;;;;15.39;43.78;101801.28;4945635;28;98205;-70
2024/01/20 10:17:57;;;;;;;;;;;;;;;15.26;44.00;101798.28;4921287;28;100324;-66
2024/01/20 10:20:32;;;;;;;;;;;;;;;15.13;43.83;101803.13;4937310;27;98482;-66
2024/01/20 10:23:01;;;;;;;;;;;;;;;14.97;44.15;101799.53;4929568;28;98190;-74
2024/01/20 10:25:27;;;;;;;;;;;;;;;14.83;44.01;101800.25;4940598;28;99239;-65
2024/01/20 10:27:53;;;;;;;;;;;;;;;14.70;44.24;101791.50;4920406;28;98189;-66
2024/01/20 10:30:20;;;;;;;;;;;;;;;14.58;44.19;101809.03;4923477;28;98398;-74
2024/01/20 10:32:47;;;;;;;;;;;;;;;14.44;44.05;101798.63;4923797;28;98290;-66
2024/01/20 10:35:14;;;;;;;;;;;;;;;14.34;44.38;101811.28;4942321;27;98089;-74
2024/01/20 10:37:45;;;;;;;;;;;;;;;14.20;44.41;101800.91;4923519;28;98061;-74
2024/01/20 10:40:13;;;;;;;;;;;;;;;14.09;44.30;101812.72;4939788;28;98079;-65
2024/01/20 10:42:50;;;;;;;;;;;;;;;13.99;44.49;101810.75;4953433;28;98353;-66
2024/01/20 10:45:19;;;;;;;;;;;;;;;13.88;44.17;101814.47;4924172;28;97992;-65
2024/01/20 10:47:57;;;;;;;;;;;;;;;13.80;44.52;101808.69;4945544;28;99167;-75
2024/01/20 10:50:25;;;;;;;;;;;;;;;13.71;44.11;101811.84;4942580;28;98318;-66
2024/01/20 10:52:51;;;;;;;;;;;;;;;13.63;44.08;101804.16;4943572;28;98157;-74
2024/01/20 10:55:17;;;;;;;;;;;;;;;13.56;44.38;101808.16;4961697;28;98576;-66
2024/01/20 10:57:43;;;;;;;;;;;;;;;13.49;44.05;101803.75;4932093;28;98161;-74
2024/01/20 11:00:11;;;;;;;;;;;;;;;13.44;44.25;101809.13;4935751;28;98027;-74
2024/01/20 11:02:37;;;;;;;;;;;;;;;13.39;44.30;101805.53;4923062;28;97930;-74
2024/01/20 11:05:15;;;;;;;;;;;;;;;13.34;44.29;101816.31;4948259;28;99706;-66
2024/01/20 11:07:42;;;;;;;;;;;;;;;13.29;44.36;101808.97;4925984;28;98338;-74
2024/01/20 11:10:08;;;;;;;;;;;;;;;13.25;44.12;101811.34;4925061;28;99218;-66
2024/01/20 11:12:35;;;;;;;;;;;;;;;13.22;44.07;101814.53;4922030;28;99546;-73
2024/01/20 11:15:01;;;;;;;;;;;;;;;13.19;44.47;101815.03;4857554;28;1891694;-65
2024/01/20 11:17:28;;;;;;;;;;;;;;;13.19;44.46;101822.31;4932021;28;98055;-73
2024/01/20 11:20:05;;;;;;;;;;;;;;;13.16;44.03;101814.69;4926985;28;97912;-65
2024/01/20 11:22:35;;;;;;;;;;;;;;;13.13;44.23;101826.88;4929750;28;98486;-65
2024/01/20 11:25:09;;;;;;;;;;;;;;;13.13;44.19;101815.22;4942144;28;99187;-73
2024/01/20 11:27:45;;;;;;;;;;;;;;;13.10;44.02;101804.91;4939344;28;98049;-65
2024/01/20 11:30:12;;;;;;;;;;;;;;;13.07;44.18;101810.81;4957289;28;98361;-65
2024/01/20 11:32:38;;;;;;;;;;;;;;;13.05;44.41;101812.94;4926851;28;99876;-74
2024/01/20 11:35:07;;;;;;;;;;;;;;;13.01;44.20;101810.75;4923967;28;98823;-65
2024/01/20 11:37:33;;;;;;;;;;;;;;;12.98;44.39;101807.72;4941712;28;98001;-65
2024/01/20 11:40:07;;;;;;;;;;;;;;;12.95;44.22;101811.75;4926058;28;99488;-73
2024/01/20 11:42:34;;;;;;;;;;;;;;;12.94;44.42;101801.19;4929743;28;98155;-73
2024/01/20 11:45:01;;;;;;;;;;;;;;;12.98;44.18;101810.44;4941597;28;98110;-65
2024/01/20 11:47:27;;;;;;;;;;;;;;;13.03;44.45;101811.31;4939231;28;110458;-65
2024/01/20 11:49:54;;;;;;;;;;;;;;;13.06;44.10;101820.81;4926153;28;98407;-65
2024/01/20 11:52:23;;;;;;;;;;;;;;;13.07;44.12;101827.88;4924738;28;99605;-73
2024/01/20 11:54:49;;;;;;;;;;;;;;;13.07;44.40;101830.56;4956961;28;99330;-65
2024/01/20 11:57:20;;;;;;;;;;;;;;;13.05;44.05;101812.94;4927219;28;128814;-72
2024/01/20 11:59:46;;;;;;;;;;;;;;;13.04;44.05;101817.53;4946911;28;101569;-73
2024/01/20 12:02:12;;;;;;;;;;;;;;;13.02;44.40;101822.41;4959903;28;98312;-65
2024/01/20 12:04:38;;;;;;;;;;;;;;;12.98;44.38;101818.56;4941459;28;99602;-73
2024/01/20 12:07:04;;;;;;;;;;;;;;;12.95;44.29;101829.88;4925964;28;98309;-65
2024/01/20 12:09:30;;;;;;;;;;;;;;;12.92;44.55;101824.94;4926022;28;122147;-73
2024/01/20 12:12:00;;;;;;;;;;;;;;;12.87;44.38;101824.91;4953323;28;128541;-66
2024/01/20 12:14:26;;;;;;;;;;;;;;;12.83;44.59;101827.28;4920707;28;99275;-65
2024/01/20 12:16:56;;;;;;;;;;;;;;;12.78;44.66;101830.72;4932056;28;97929;-73
2024/01/20 12:19:22;;;;;;;;;;;;;;;12.74;44.32;101835.00;4932194;28;98291;-72
2024/01/20 12:21:48;;;;;;;;;;;;;;;12.70;44.57;101841.97;4925563;28;100514;-69
2024/01/20 12:24:14;;;;;;;;;;;;;;;12.65;44.33;101831.06;4930195;28;98262;-65
2024/01/20 12:26:41;;;;;;;;;;;;;;;12.61;44.56;101839.94;4928837;28;98376;-73
2024/01/20 12:29:07;;;;;;;;;;;;;;;12.56;44.63;101837.97;4949129;28;98206;-65
2024/01/20 12:31:34;;;;;;;;;;;;;;;12.52;44.25;101834.13;4928106;28;98149;-66
2024/01/20 12:34:00;;;;;;;;;;;;;;;12.47;44.53;101826.75;4924749;28;98107;-65
2024/01/20 12:36:27;;;;;;;;;;;;;;;12.43;44.72;101824.78;4925688;28;100295;-65